THA112 VTSP-VHHH
Flight info
| Callsign | THA112 |
|---|---|
| Flight time | N/A |
| Altitude | 39000 |
| Route | EMRIT1A EMRIT Y99 NONEL Y98 SURMA W42 TOPER A1 SANOT Y15 GUROK A202 VILAO/K0885F390 A202 ASSAD/K0885S1190 A202 SAMAS/K0724S0630 A202 SIKOU/N0477F390 V571 CANTO |
| Aircraft | B772/H-SDE2E3FGHIJ5LORVWXY/LB1D1 |
Departure
| Time | 2026-05-04 03:41 |
|---|---|
| Airport | Phuket International Airport (VTSP) |
Arrival
| Time | N/A |
|---|---|
| Airport | Hong Kong International Airport (VHHH) |
| Time | Latitude | Longitude | Altitude | Speed | Heading |
|---|---|---|---|---|---|
| 2026-05-04 03:37 | 8.11185 | 98.31669 | 49 ft | 16 kts | 84° |
| 2026-05-04 03:37 | 8.11195 | 98.31782 | 53 ft | 16 kts | 85° |
| 2026-05-04 03:38 | 8.11206 | 98.31895 | 52 ft | 16 kts | 84° |
| 2026-05-04 03:38 | 8.11217 | 98.32008 | 57 ft | 16 kts | 85° |
| 2026-05-04 03:38 | 8.11227 | 98.32121 | 69 ft | 16 kts | 85° |
| 2026-05-04 03:38 | 8.11237 | 98.32233 | 74 ft | 16 kts | 84° |
| 2026-05-04 03:39 | 8.11249 | 98.32346 | 70 ft | 16 kts | 84° |
| 2026-05-04 03:39 | 8.11259 | 98.32459 | 83 ft | 16 kts | 84° |
| 2026-05-04 03:39 | 8.11270 | 98.32577 | 87 ft | 18 kts | 84° |
| 2026-05-04 03:39 | 8.11354 | 98.32637 | 87 ft | 11 kts | 359° |
| 2026-05-04 03:40 | 8.11408 | 98.32583 | 89 ft | 14 kts | 271° |
| 2026-05-04 03:40 | 8.11403 | 98.32541 | 87 ft | 15 kts | 263° |
| 2026-05-04 03:40 | 8.11354 | 98.32046 | 60 ft | 126 kts | 264° |
| 2026-05-04 03:40 | 8.11258 | 98.30875 | 328 ft | 192 kts | 262° |
| 2026-05-04 03:41 | 8.11132 | 98.29538 | 1678 ft | 197 kts | 259° |
| 2026-05-04 03:41 | 8.10954 | 98.28090 | 2519 ft | 219 kts | 252° |
| 2026-05-04 03:41 | 8.10120 | 98.26803 | 2879 ft | 226 kts | 210° |
| 2026-05-04 03:41 | 8.08633 | 98.26346 | 3488 ft | 228 kts | 184° |
| 2026-05-04 03:42 | 8.07060 | 98.26183 | 3962 ft | 245 kts | 184° |
| 2026-05-04 03:42 | 8.05333 | 98.26000 | 4763 ft | 254 kts | 184° |
| 2026-05-04 03:42 | 8.03561 | 98.25809 | 5643 ft | 258 kts | 185° |
| 2026-05-04 03:42 | 8.01769 | 98.25611 | 6553 ft | 261 kts | 185° |
| 2026-05-04 03:43 | 7.99963 | 98.25406 | 7435 ft | 264 kts | 185° |
| 2026-05-04 03:43 | 7.98124 | 98.25192 | 8292 ft | 268 kts | 185° |
| 2026-05-04 03:43 | 7.96257 | 98.24973 | 9138 ft | 272 kts | 185° |
| 2026-05-04 03:43 | 7.94365 | 98.24749 | 9970 ft | 276 kts | 185° |
| 2026-05-04 03:44 | 7.92457 | 98.24651 | 10326 ft | 291 kts | 171° |
| 2026-05-04 03:44 | 7.90496 | 98.25409 | 10540 ft | 319 kts | 145° |
| 2026-05-04 03:44 | 7.89006 | 98.27126 | 11102 ft | 337 kts | 118° |
| 2026-05-04 03:44 | 7.88463 | 98.29454 | 11902 ft | 347 kts | 93° |
| 2026-05-04 03:45 | 7.88549 | 98.31924 | 12603 ft | 358 kts | 89° |
| 2026-05-04 03:45 | 7.88718 | 98.34446 | 13565 ft | 362 kts | 88° |
| 2026-05-04 03:45 | 7.88881 | 98.36953 | 14542 ft | 365 kts | 89° |
| 2026-05-04 03:45 | 7.89024 | 98.39524 | 15462 ft | 369 kts | 89° |
| 2026-05-04 03:46 | 7.89146 | 98.42130 | 16328 ft | 375 kts | 90° |
| 2026-05-04 03:46 | 7.89254 | 98.44775 | 17176 ft | 380 kts | 90° |
| 2026-05-04 03:46 | 7.89358 | 98.47459 | 18018 ft | 385 kts | 90° |
| 2026-05-04 03:46 | 7.89475 | 98.50169 | 18833 ft | 386 kts | 87° |
| 2026-05-04 03:47 | 7.90118 | 98.52839 | 19411 ft | 401 kts | 68° |
| 2026-05-04 03:47 | 7.91625 | 98.55229 | 20108 ft | 406 kts | 55° |
| 2026-05-04 03:47 | 7.93346 | 98.57527 | 20785 ft | 414 kts | 55° |
| 2026-05-04 03:47 | 7.95092 | 98.59859 | 21585 ft | 418 kts | 55° |
| 2026-05-04 03:48 | 7.96842 | 98.62216 | 22402 ft | 422 kts | 55° |
| 2026-05-04 03:48 | 7.98598 | 98.64601 | 23145 ft | 426 kts | 56° |
| 2026-05-04 03:48 | 8.00364 | 98.67018 | 23841 ft | 430 kts | 56° |
| 2026-05-04 03:48 | 8.02147 | 98.69468 | 24517 ft | 435 kts | 56° |
| 2026-05-04 03:49 | 8.03945 | 98.71941 | 25152 ft | 440 kts | 56° |
| 2026-05-04 03:49 | 8.05763 | 98.74443 | 25768 ft | 444 kts | 56° |
| 2026-05-04 03:49 | 8.07597 | 98.76966 | 26359 ft | 448 kts | 56° |
| 2026-05-04 03:49 | 8.09388 | 98.79529 | 26892 ft | 446 kts | 62° |
| 2026-05-04 03:50 | 8.10552 | 98.82434 | 27239 ft | 449 kts | 79° |
| 2026-05-04 03:50 | 8.10813 | 98.85558 | 27707 ft | 446 kts | 93° |
| 2026-05-04 03:50 | 8.10736 | 98.88699 | 28182 ft | 450 kts | 92° |
| 2026-05-04 03:50 | 8.10720 | 98.91870 | 28661 ft | 454 kts | 91° |
| 2026-05-04 03:51 | 8.10938 | 98.95048 | 29031 ft | 459 kts | 81° |
| 2026-05-04 03:51 | 8.11933 | 98.98134 | 29400 ft | 467 kts | 66° |
| 2026-05-04 03:51 | 8.13585 | 99.00923 | 29828 ft | 473 kts | 53° |
| 2026-05-04 03:51 | 8.15801 | 99.03379 | 30214 ft | 475 kts | 47° |
| 2026-05-04 03:52 | 8.18135 | 99.05763 | 30547 ft | 480 kts | 47° |
| 2026-05-04 03:52 | 8.20492 | 99.08161 | 30898 ft | 483 kts | 47° |
| 2026-05-04 03:52 | 8.22846 | 99.10591 | 31261 ft | 485 kts | 47° |
| 2026-05-04 03:52 | 8.25192 | 99.13050 | 31611 ft | 487 kts | 48° |
| 2026-05-04 03:53 | 8.27530 | 99.15529 | 31917 ft | 489 kts | 48° |
| 2026-05-04 03:53 | 8.29878 | 99.18029 | 32220 ft | 491 kts | 48° |
| 2026-05-04 03:53 | 8.32234 | 99.20535 | 32491 ft | 494 kts | 48° |
| 2026-05-04 03:53 | 8.34605 | 99.23054 | 32735 ft | 496 kts | 48° |
| 2026-05-04 03:54 | 8.36988 | 99.25584 | 33017 ft | 497 kts | 48° |
| 2026-05-04 03:54 | 8.39367 | 99.28110 | 33375 ft | 496 kts | 48° |
| 2026-05-04 03:54 | 8.41758 | 99.30606 | 33729 ft | 493 kts | 44° |
| 2026-05-04 03:54 | 8.44534 | 99.32662 | 33961 ft | 499 kts | 29° |
| 2026-05-04 03:55 | 8.47742 | 99.34013 | 34282 ft | 501 kts | 17° |
| 2026-05-04 03:55 | 8.51164 | 99.34630 | 34648 ft | 499 kts | 4° |
| 2026-05-04 03:55 | 8.54588 | 99.34763 | 34899 ft | 500 kts | 2° |
| 2026-05-04 03:55 | 8.58070 | 99.34856 | 35184 ft | 501 kts | 2° |
| 2026-05-04 03:56 | 8.61549 | 99.34968 | 35539 ft | 500 kts | 3° |
| 2026-05-04 03:56 | 8.65018 | 99.35114 | 35911 ft | 498 kts | 3° |
| 2026-05-04 03:56 | 8.68474 | 99.35288 | 36250 ft | 497 kts | 4° |
| 2026-05-04 03:56 | 8.71929 | 99.35470 | 36536 ft | 497 kts | 4° |
| 2026-05-04 03:57 | 8.75385 | 99.35650 | 36801 ft | 498 kts | 4° |
| 2026-05-04 03:57 | 8.78847 | 99.35825 | 37072 ft | 498 kts | 4° |
| 2026-05-04 03:57 | 8.82309 | 99.35998 | 37363 ft | 498 kts | 4° |
| 2026-05-04 03:57 | 8.85766 | 99.36169 | 37622 ft | 498 kts | 4° |
| 2026-05-04 03:58 | 8.92683 | 99.36513 | 38126 ft | 498 kts | 4° |
| 2026-05-04 03:58 | 8.96138 | 99.36685 | 38371 ft | 498 kts | 4° |
| 2026-05-04 03:58 | 8.99599 | 99.36859 | 38610 ft | 498 kts | 4° |
| 2026-05-04 03:59 | 9.06533 | 99.37206 | 38757 ft | 502 kts | 4° |
| 2026-05-04 03:59 | 9.13432 | 99.37556 | 38780 ft | 497 kts | 4° |
| 2026-05-04 04:00 | 9.20329 | 99.37911 | 38781 ft | 495 kts | 5° |
| 2026-05-04 04:00 | 9.27122 | 99.38961 | 38780 ft | 493 kts | 16° |
| 2026-05-04 04:01 | 9.33670 | 99.41020 | 38782 ft | 493 kts | 19° |
| 2026-05-04 04:01 | 9.40226 | 99.43126 | 38789 ft | 495 kts | 18° |
| 2026-05-04 04:02 | 9.46823 | 99.45170 | 38787 ft | 496 kts | 18° |
| 2026-05-04 04:02 | 9.53426 | 99.47219 | 38787 ft | 497 kts | 18° |
| 2026-05-04 04:03 | 9.60036 | 99.49274 | 38782 ft | 497 kts | 18° |
| 2026-05-04 04:03 | 9.66646 | 99.51333 | 38785 ft | 497 kts | 18° |
| 2026-05-04 04:04 | 9.72138 | 99.53043 | 38782 ft | 497 kts | 18° |
| 2026-05-04 04:04 | 9.79809 | 99.55434 | 38785 ft | 496 kts | 18° |
| 2026-05-04 04:05 | 9.86407 | 99.57490 | 38786 ft | 496 kts | 18° |
| 2026-05-04 04:05 | 9.91692 | 99.59138 | 38780 ft | 496 kts | 18° |
| 2026-05-04 04:06 | 9.98284 | 99.61194 | 38781 ft | 496 kts | 18° |
| 2026-05-04 04:06 | 10.04813 | 99.63232 | 38786 ft | 496 kts | 18° |
| 2026-05-04 04:07 | 10.11404 | 99.65290 | 38786 ft | 496 kts | 18° |
| 2026-05-04 04:07 | 10.17995 | 99.67349 | 38783 ft | 496 kts | 18° |
| 2026-05-04 04:08 | 10.24535 | 99.69392 | 38787 ft | 496 kts | 18° |
| 2026-05-04 04:08 | 10.30848 | 99.71366 | 38784 ft | 496 kts | 18° |
| 2026-05-04 04:09 | 10.37185 | 99.73348 | 38783 ft | 496 kts | 18° |
| 2026-05-04 04:09 | 10.43781 | 99.75412 | 38783 ft | 496 kts | 18° |
| 2026-05-04 04:10 | 10.50188 | 99.77417 | 38784 ft | 496 kts | 18° |
| 2026-05-04 04:10 | 10.56782 | 99.79482 | 38785 ft | 496 kts | 18° |
| 2026-05-04 04:11 | 10.63378 | 99.81549 | 38781 ft | 496 kts | 18° |
| 2026-05-04 04:11 | 10.69928 | 99.83603 | 38784 ft | 496 kts | 18° |
| 2026-05-04 04:12 | 10.76565 | 99.85684 | 38780 ft | 496 kts | 18° |
| 2026-05-04 04:12 | 10.83111 | 99.87739 | 38784 ft | 496 kts | 18° |
| 2026-05-04 04:13 | 10.89607 | 99.90071 | 38791 ft | 494 kts | 26° |
| 2026-05-04 04:13 | 10.95660 | 99.93354 | 38786 ft | 493 kts | 31° |
| 2026-05-04 04:14 | 11.01624 | 99.96780 | 38785 ft | 493 kts | 31° |
| 2026-05-04 04:14 | 11.07518 | 100.00132 | 38783 ft | 494 kts | 30° |
| 2026-05-04 04:15 | 11.13531 | 100.03517 | 38784 ft | 494 kts | 30° |
| 2026-05-04 04:15 | 11.19509 | 100.06875 | 38784 ft | 494 kts | 30° |
| 2026-05-04 04:16 | 11.25522 | 100.10256 | 38784 ft | 494 kts | 30° |
| 2026-05-04 04:16 | 11.31534 | 100.13640 | 38783 ft | 494 kts | 30° |
| 2026-05-04 04:17 | 11.37545 | 100.17027 | 38784 ft | 494 kts | 30° |
| 2026-05-04 04:17 | 11.43557 | 100.20415 | 38782 ft | 494 kts | 30° |
| 2026-05-04 04:18 | 11.49566 | 100.23804 | 38784 ft | 494 kts | 30° |
| 2026-05-04 04:18 | 11.55576 | 100.27194 | 38781 ft | 494 kts | 30° |
| 2026-05-04 04:19 | 11.61584 | 100.30588 | 38785 ft | 494 kts | 30° |
| 2026-05-04 04:19 | 11.67589 | 100.33988 | 38781 ft | 494 kts | 30° |
| 2026-05-04 04:20 | 11.73594 | 100.37391 | 38785 ft | 494 kts | 30° |
| 2026-05-04 04:20 | 11.79595 | 100.40793 | 38780 ft | 494 kts | 30° |
| 2026-05-04 04:21 | 11.85476 | 100.44396 | 38787 ft | 492 kts | 37° |
| 2026-05-04 04:21 | 11.90658 | 100.48914 | 38782 ft | 490 kts | 46° |
| 2026-05-04 04:22 | 11.95561 | 100.53750 | 38779 ft | 490 kts | 45° |
| 2026-05-04 04:22 | 12.00394 | 100.58563 | 38785 ft | 489 kts | 50° |
| 2026-05-04 04:23 | 12.04522 | 100.64055 | 38773 ft | 487 kts | 56° |
| 2026-05-04 04:23 | 12.08473 | 100.69682 | 38784 ft | 487 kts | 56° |
| 2026-05-04 04:24 | 12.12458 | 100.75292 | 38784 ft | 488 kts | 56° |
| 2026-05-04 04:24 | 12.16450 | 100.80895 | 38786 ft | 488 kts | 56° |
| 2026-05-04 04:25 | 12.20442 | 100.86504 | 38782 ft | 488 kts | 56° |
| 2026-05-04 04:25 | 12.24432 | 100.92117 | 38786 ft | 488 kts | 56° |
| 2026-05-04 04:26 | 12.28420 | 100.97733 | 38786 ft | 488 kts | 56° |
| 2026-05-04 04:26 | 12.32339 | 101.03255 | 38783 ft | 488 kts | 56° |
| 2026-05-04 04:27 | 12.36321 | 101.08867 | 38786 ft | 488 kts | 56° |
| 2026-05-04 04:27 | 12.40305 | 101.14482 | 38784 ft | 487 kts | 56° |
| 2026-05-04 04:28 | 12.44287 | 101.20098 | 38780 ft | 487 kts | 56° |
| 2026-05-04 04:28 | 12.48265 | 101.25715 | 38784 ft | 488 kts | 56° |
| 2026-05-04 04:29 | 12.52241 | 101.31333 | 38784 ft | 488 kts | 56° |
| 2026-05-04 04:29 | 12.56189 | 101.36916 | 38784 ft | 488 kts | 56° |
| 2026-05-04 04:30 | 12.60165 | 101.42539 | 38784 ft | 488 kts | 56° |
| 2026-05-04 04:30 | 12.64146 | 101.48162 | 38784 ft | 488 kts | 56° |
| 2026-05-04 04:31 | 12.68115 | 101.53763 | 38783 ft | 488 kts | 56° |
| 2026-05-04 04:31 | 12.72095 | 101.59387 | 38786 ft | 488 kts | 56° |
| 2026-05-04 04:32 | 12.76177 | 101.64937 | 38783 ft | 489 kts | 49° |
| 2026-05-04 04:32 | 12.81176 | 101.69500 | 38785 ft | 492 kts | 37° |
| 2026-05-04 04:33 | 12.86920 | 101.72978 | 38781 ft | 493 kts | 30° |
| 2026-05-04 04:33 | 12.92944 | 101.76364 | 38788 ft | 494 kts | 31° |
| 2026-05-04 04:34 | 12.98847 | 101.79802 | 38784 ft | 494 kts | 31° |
| 2026-05-04 04:34 | 13.04497 | 101.83121 | 38784 ft | 494 kts | 31° |
| 2026-05-04 04:35 | 13.10481 | 101.86596 | 38784 ft | 494 kts | 31° |
| 2026-05-04 04:35 | 13.16471 | 101.90056 | 38784 ft | 494 kts | 31° |
| 2026-05-04 04:36 | 13.22454 | 101.93522 | 38784 ft | 494 kts | 31° |
| 2026-05-04 04:36 | 13.28434 | 101.96985 | 38782 ft | 494 kts | 31° |
| 2026-05-04 04:37 | 13.40299 | 102.03851 | 38781 ft | 494 kts | 31° |
| 2026-05-04 04:38 | 13.46282 | 102.07320 | 38782 ft | 493 kts | 31° |
| 2026-05-04 04:38 | 13.52221 | 102.10764 | 38784 ft | 493 kts | 31° |
| 2026-05-04 04:39 | 13.58197 | 102.14232 | 38783 ft | 494 kts | 31° |
| 2026-05-04 04:39 | 13.64182 | 102.17708 | 38788 ft | 494 kts | 31° |
| 2026-05-04 04:40 | 13.70162 | 102.21183 | 38783 ft | 494 kts | 31° |
| 2026-05-04 04:40 | 13.76138 | 102.24666 | 38783 ft | 494 kts | 31° |
| 2026-05-04 04:41 | 13.82090 | 102.28192 | 38785 ft | 494 kts | 31° |
| 2026-05-04 04:41 | 13.88042 | 102.31713 | 38783 ft | 494 kts | 31° |
| 2026-05-04 04:42 | 13.94017 | 102.35199 | 38784 ft | 494 kts | 31° |
| 2026-05-04 04:42 | 14.00002 | 102.38675 | 38785 ft | 494 kts | 31° |
| 2026-05-04 04:43 | 14.05960 | 102.42145 | 38782 ft | 494 kts | 31° |
| 2026-05-04 04:43 | 14.11902 | 102.45613 | 38783 ft | 494 kts | 31° |
| 2026-05-04 04:44 | 14.17881 | 102.49106 | 38781 ft | 494 kts | 31° |
| 2026-05-04 04:44 | 14.23859 | 102.52600 | 38779 ft | 494 kts | 31° |
| 2026-05-04 04:45 | 14.29835 | 102.56095 | 38783 ft | 493 kts | 31° |
| 2026-05-04 04:47 | 14.50578 | 102.68339 | 38784 ft | 493 kts | 31° |
| 2026-05-04 04:47 | 14.56501 | 102.71912 | 38784 ft | 493 kts | 31° |
| 2026-05-04 04:48 | 14.62036 | 102.75982 | 38795 ft | 487 kts | 49° |
| 2026-05-04 04:49 | 14.67789 | 102.88364 | 38792 ft | 482 kts | 73° |
| 2026-05-04 04:49 | 14.68845 | 102.91658 | 38791 ft | 483 kts | 73° |
| 2026-05-04 04:49 | 14.71002 | 102.98247 | 38787 ft | 485 kts | 72° |
| 2026-05-04 04:50 | 14.73171 | 103.04717 | 38781 ft | 485 kts | 72° |
| 2026-05-04 04:50 | 14.75376 | 103.11257 | 38785 ft | 485 kts | 72° |
| 2026-05-04 04:51 | 14.77588 | 103.17833 | 38780 ft | 484 kts | 72° |
| 2026-05-04 04:51 | 14.79790 | 103.24400 | 38780 ft | 483 kts | 72° |
| 2026-05-04 04:52 | 14.81985 | 103.30968 | 38784 ft | 483 kts | 72° |
| 2026-05-04 04:52 | 14.84180 | 103.37522 | 38786 ft | 482 kts | 72° |
| 2026-05-04 04:53 | 14.87086 | 103.43780 | 38791 ft | 486 kts | 59° |
| 2026-05-04 04:53 | 14.91134 | 103.49384 | 38777 ft | 488 kts | 50° |
| 2026-05-04 04:54 | 14.95612 | 103.54666 | 38787 ft | 489 kts | 50° |
| 2026-05-04 04:54 | 15.00059 | 103.59954 | 38783 ft | 489 kts | 51° |
| 2026-05-04 04:55 | 15.04482 | 103.65308 | 38785 ft | 489 kts | 51° |
| 2026-05-04 04:55 | 15.08146 | 103.69765 | 38787 ft | 489 kts | 51° |
| 2026-05-04 04:56 | 15.12587 | 103.75104 | 38785 ft | 490 kts | 47° |
| 2026-05-04 04:56 | 15.17900 | 103.79533 | 38789 ft | 493 kts | 33° |
| 2026-05-04 04:57 | 15.24083 | 103.82634 | 38784 ft | 495 kts | 23° |
| 2026-05-04 04:57 | 15.30461 | 103.85321 | 38780 ft | 495 kts | 23° |
| 2026-05-04 04:58 | 15.36837 | 103.88041 | 38786 ft | 495 kts | 23° |
| 2026-05-04 04:58 | 15.43188 | 103.90817 | 38787 ft | 495 kts | 24° |
| 2026-05-04 04:59 | 15.49531 | 103.93615 | 38783 ft | 495 kts | 24° |
| 2026-05-04 04:59 | 15.55878 | 103.96416 | 38785 ft | 495 kts | 24° |
| 2026-05-04 05:00 | 15.62187 | 103.99198 | 38780 ft | 495 kts | 24° |
| 2026-05-04 05:01 | 15.71588 | 104.03345 | 38782 ft | 495 kts | 24° |
| 2026-05-04 05:01 | 15.77926 | 104.06145 | 38783 ft | 495 kts | 24° |
| 2026-05-04 05:02 | 15.84271 | 104.08952 | 38788 ft | 498 kts | 24° |
| 2026-05-04 05:02 | 15.90699 | 104.11804 | 38792 ft | 507 kts | 24° |
| 2026-05-04 05:03 | 15.97255 | 104.14710 | 38785 ft | 515 kts | 24° |
| 2026-05-04 05:04 | 16.09412 | 104.22472 | 38777 ft | 518 kts | 46° |
| 2026-05-04 05:04 | 16.14269 | 104.27984 | 38780 ft | 517 kts | 50° |
| 2026-05-04 05:06 | 16.33491 | 104.50207 | 38773 ft | 514 kts | 50° |
| 2026-05-04 05:07 | 16.38257 | 104.55763 | 38780 ft | 513 kts | 50° |
| 2026-05-04 05:07 | 16.43011 | 104.61306 | 38783 ft | 512 kts | 50° |
| 2026-05-04 05:09 | 16.62852 | 104.87320 | 38781 ft | 509 kts | 59° |
| 2026-05-04 05:10 | 16.66636 | 104.93552 | 38770 ft | 509 kts | 59° |
| 2026-05-04 05:10 | 16.70431 | 104.99729 | 38783 ft | 509 kts | 59° |
| 2026-05-04 05:11 | 16.74190 | 105.05827 | 38777 ft | 509 kts | 59° |
| 2026-05-04 05:11 | 16.78020 | 105.12045 | 38780 ft | 509 kts | 59° |
| 2026-05-04 05:12 | 16.81845 | 105.18271 | 38775 ft | 510 kts | 59° |
| 2026-05-04 05:12 | 16.85672 | 105.24499 | 38780 ft | 510 kts | 59° |
| 2026-05-04 05:13 | 16.89499 | 105.30728 | 38775 ft | 510 kts | 59° |
| 2026-05-04 05:13 | 16.93324 | 105.36967 | 38778 ft | 510 kts | 59° |
| 2026-05-04 05:14 | 16.97140 | 105.43208 | 38777 ft | 510 kts | 59° |
| 2026-05-04 05:14 | 17.00942 | 105.49433 | 38773 ft | 510 kts | 59° |
| 2026-05-04 05:15 | 17.04755 | 105.55683 | 38761 ft | 510 kts | 59° |
| 2026-05-04 05:15 | 17.08568 | 105.61938 | 38782 ft | 510 kts | 59° |
| 2026-05-04 05:16 | 17.12377 | 105.68193 | 38780 ft | 510 kts | 59° |
| 2026-05-04 05:16 | 17.16183 | 105.74448 | 38782 ft | 510 kts | 59° |
| 2026-05-04 05:17 | 17.19988 | 105.80707 | 38780 ft | 510 kts | 59° |
| 2026-05-04 05:17 | 17.23790 | 105.86969 | 38781 ft | 510 kts | 59° |
| 2026-05-04 05:18 | 17.27591 | 105.93235 | 38784 ft | 510 kts | 59° |
| 2026-05-04 05:18 | 17.31364 | 105.99464 | 38783 ft | 510 kts | 59° |
| 2026-05-04 05:19 | 17.35088 | 106.05622 | 38781 ft | 510 kts | 59° |
| 2026-05-04 05:19 | 17.38900 | 106.11884 | 38779 ft | 510 kts | 58° |
| 2026-05-04 05:20 | 17.42754 | 106.18123 | 38761 ft | 510 kts | 58° |
| 2026-05-04 05:20 | 17.46601 | 106.24359 | 38783 ft | 510 kts | 58° |
| 2026-05-04 05:21 | 17.50436 | 106.30605 | 38785 ft | 510 kts | 59° |
| 2026-05-04 05:21 | 17.54266 | 106.36854 | 38782 ft | 510 kts | 59° |
| 2026-05-04 05:22 | 17.58097 | 106.43112 | 38781 ft | 510 kts | 59° |
| 2026-05-04 05:22 | 17.61920 | 106.49365 | 38776 ft | 510 kts | 59° |
| 2026-05-04 05:23 | 17.65742 | 106.55625 | 38762 ft | 510 kts | 59° |
| 2026-05-04 05:23 | 17.69566 | 106.61884 | 38783 ft | 510 kts | 59° |
| 2026-05-04 05:24 | 17.73390 | 106.68149 | 38780 ft | 510 kts | 59° |
| 2026-05-04 05:24 | 17.77202 | 106.74417 | 38779 ft | 510 kts | 59° |
| 2026-05-04 05:25 | 17.81010 | 106.80689 | 38780 ft | 510 kts | 59° |
| 2026-05-04 05:25 | 17.84813 | 106.86966 | 38776 ft | 510 kts | 59° |
| 2026-05-04 05:26 | 17.88618 | 106.93243 | 38778 ft | 510 kts | 59° |
| 2026-05-04 05:26 | 17.92453 | 106.99503 | 38779 ft | 510 kts | 58° |
| 2026-05-04 05:28 | 18.07707 | 107.24443 | 38780 ft | 510 kts | 59° |
| 2026-05-04 05:29 | 18.11531 | 107.30718 | 38777 ft | 510 kts | 59° |
| 2026-05-04 05:29 | 18.15347 | 107.37001 | 38780 ft | 510 kts | 59° |
| 2026-05-04 05:31 | 18.30544 | 107.62129 | 38777 ft | 510 kts | 59° |
| 2026-05-04 05:32 | 18.34391 | 107.68398 | 38785 ft | 510 kts | 56° |
| 2026-05-04 05:33 | 18.41130 | 107.77100 | 38784 ft | 511 kts | 51° |
| 2026-05-04 05:33 | 18.45725 | 107.82824 | 38779 ft | 512 kts | 51° |
| 2026-05-04 05:34 | 18.50284 | 107.88580 | 38779 ft | 512 kts | 52° |
| 2026-05-04 05:34 | 18.54822 | 107.94358 | 38777 ft | 512 kts | 52° |
| 2026-05-04 05:35 | 18.59311 | 108.00087 | 38778 ft | 512 kts | 52° |
| 2026-05-04 05:35 | 18.63805 | 108.05823 | 38779 ft | 512 kts | 52° |
| 2026-05-04 05:36 | 18.68341 | 108.11614 | 38778 ft | 512 kts | 52° |
| 2026-05-04 05:36 | 18.72871 | 108.17403 | 38779 ft | 512 kts | 52° |
| 2026-05-04 05:37 | 18.77371 | 108.23159 | 38774 ft | 512 kts | 52° |
| 2026-05-04 05:37 | 18.81902 | 108.28961 | 38776 ft | 512 kts | 52° |
| 2026-05-04 05:38 | 18.88689 | 108.37662 | 38773 ft | 512 kts | 52° |
| 2026-05-04 05:38 | 18.93211 | 108.43465 | 38779 ft | 512 kts | 52° |
| 2026-05-04 05:39 | 18.99993 | 108.52180 | 38780 ft | 512 kts | 52° |
| 2026-05-04 05:40 | 19.06762 | 108.60892 | 38771 ft | 512 kts | 52° |
| 2026-05-04 05:40 | 19.11276 | 108.66710 | 38777 ft | 512 kts | 52° |
| 2026-05-04 05:41 | 19.15788 | 108.72531 | 38778 ft | 512 kts | 52° |
| 2026-05-04 05:41 | 19.20299 | 108.78360 | 38782 ft | 512 kts | 52° |
| 2026-05-04 05:42 | 19.24806 | 108.84188 | 38763 ft | 512 kts | 52° |
| 2026-05-04 05:42 | 19.29322 | 108.90004 | 38782 ft | 512 kts | 52° |
| 2026-05-04 05:43 | 19.33851 | 108.95825 | 38764 ft | 512 kts | 52° |
| 2026-05-04 05:45 | 19.51786 | 109.19008 | 38782 ft | 512 kts | 52° |
| 2026-05-04 05:47 | 19.68587 | 109.41072 | 38780 ft | 511 kts | 52° |
| 2026-05-04 05:47 | 19.72886 | 109.46741 | 38774 ft | 511 kts | 52° |
| 2026-05-04 05:48 | 19.77344 | 109.52622 | 38776 ft | 511 kts | 52° |
| 2026-05-04 05:48 | 19.81804 | 109.58514 | 38782 ft | 511 kts | 52° |
| 2026-05-04 05:49 | 19.86258 | 109.64404 | 38780 ft | 511 kts | 52° |
| 2026-05-04 05:49 | 19.90711 | 109.70299 | 38780 ft | 511 kts | 52° |
| 2026-05-04 05:51 | 20.08464 | 109.93858 | 38777 ft | 511 kts | 53° |
| 2026-05-04 05:52 | 20.12905 | 109.99768 | 38776 ft | 511 kts | 53° |
| 2026-05-04 05:52 | 20.17268 | 110.05581 | 38780 ft | 511 kts | 53° |
| 2026-05-04 05:54 | 20.35058 | 110.29237 | 38784 ft | 512 kts | 52° |
| 2026-05-04 05:55 | 20.39561 | 110.35112 | 38763 ft | 512 kts | 52° |
| 2026-05-04 05:55 | 20.44017 | 110.40964 | 38771 ft | 512 kts | 52° |
| 2026-05-04 05:56 | 20.48432 | 110.46971 | 38778 ft | 510 kts | 58° |
| 2026-05-04 05:56 | 20.51862 | 110.53503 | 38784 ft | 507 kts | 67° |
| 2026-05-04 05:57 | 20.54340 | 110.60529 | 38780 ft | 506 kts | 72° |
| 2026-05-04 05:57 | 20.56653 | 110.67620 | 38778 ft | 506 kts | 72° |
| 2026-05-04 05:58 | 20.59005 | 110.74699 | 38779 ft | 506 kts | 72° |
| 2026-05-04 05:58 | 20.61381 | 110.81772 | 38779 ft | 506 kts | 72° |
| 2026-05-04 05:59 | 20.63754 | 110.88846 | 38779 ft | 506 kts | 72° |
| 2026-05-04 05:59 | 20.66138 | 110.95920 | 38780 ft | 506 kts | 71° |
| 2026-05-04 06:00 | 20.68496 | 111.02871 | 38782 ft | 506 kts | 71° |
| 2026-05-04 06:00 | 20.70886 | 111.09942 | 38779 ft | 506 kts | 72° |
| 2026-05-04 06:01 | 20.73267 | 111.17019 | 38777 ft | 506 kts | 72° |
| 2026-05-04 06:03 | 20.82741 | 111.45306 | 38779 ft | 506 kts | 72° |
| 2026-05-04 06:05 | 20.93452 | 111.77033 | 38781 ft | 506 kts | 72° |
| 2026-05-04 06:06 | 20.95822 | 111.84126 | 38779 ft | 506 kts | 72° |
| 2026-05-04 06:06 | 20.98203 | 111.91220 | 38779 ft | 507 kts | 72° |
| 2026-05-04 06:07 | 21.00583 | 111.98305 | 38775 ft | 507 kts | 72° |
| 2026-05-04 06:07 | 21.02920 | 112.05275 | 38777 ft | 507 kts | 72° |
| 2026-05-04 06:08 | 21.05294 | 112.12374 | 38780 ft | 507 kts | 72° |
| 2026-05-04 06:08 | 21.07666 | 112.19474 | 38774 ft | 506 kts | 72° |
| 2026-05-04 06:09 | 21.10018 | 112.26530 | 38772 ft | 506 kts | 72° |
| 2026-05-04 06:11 | 21.19459 | 112.54955 | 38771 ft | 506 kts | 72° |
| 2026-05-04 06:13 | 21.28686 | 112.82910 | 37377 ft | 479 kts | 72° |
| 2026-05-04 06:14 | 21.35285 | 113.03025 | 33233 ft | 471 kts | 72° |
| 2026-05-04 06:14 | 21.36365 | 113.06326 | 32755 ft | 466 kts | 72° |
| 2026-05-04 06:15 | 21.37432 | 113.09588 | 32230 ft | 462 kts | 72° |
| 2026-05-04 06:15 | 21.38493 | 113.12828 | 31667 ft | 458 kts | 72° |
| 2026-05-04 06:15 | 21.39547 | 113.16041 | 31122 ft | 455 kts | 72° |
| 2026-05-04 06:15 | 21.40595 | 113.19233 | 30582 ft | 451 kts | 72° |
| 2026-05-04 06:16 | 21.41631 | 113.22395 | 30063 ft | 448 kts | 72° |
| 2026-05-04 06:16 | 21.42658 | 113.25531 | 29535 ft | 444 kts | 72° |
| 2026-05-04 06:16 | 21.43676 | 113.28643 | 29022 ft | 440 kts | 72° |
| 2026-05-04 06:16 | 21.44685 | 113.31730 | 28494 ft | 436 kts | 73° |
| 2026-05-04 06:17 | 21.45683 | 113.34790 | 27977 ft | 433 kts | 73° |
| 2026-05-04 06:17 | 21.46675 | 113.37829 | 27455 ft | 429 kts | 73° |
| 2026-05-04 06:17 | 21.47656 | 113.40840 | 26948 ft | 426 kts | 73° |
| 2026-05-04 06:17 | 21.48631 | 113.43832 | 26446 ft | 423 kts | 73° |
| 2026-05-04 06:18 | 21.49596 | 113.46796 | 25941 ft | 419 kts | 73° |
| 2026-05-04 06:18 | 21.50542 | 113.49746 | 25445 ft | 416 kts | 73° |
| 2026-05-04 06:18 | 21.51474 | 113.52672 | 24954 ft | 413 kts | 73° |